Pretty Hana — DSQJ5 — position and weather

sailwx.info

Track history (hours):
 
Tides and Currents Weather Stations Pressure Air Temp Water Temp Dewpoint Dewpoint Depression Visibility Wind Speed Wind Dir Waves Ship Positions

Pretty Hana

Last reported at 2016-May-01 01:17 UTC. Time now 2016-May-04 04:13 UTC.
Position N 35°04' E 120°06'.

Length 65 m; draft 3.5 m.

Type: Fishing. MMSI: 441600000.

Date/timePositionNaut miles runAvg speedWind from/ knotsBaromVisibWave heightAir tempDewpointWater temp
2016-May-01 01:17N 35°04' E 120°06'17 8.9
2016-Apr-30 23:20N 35°04' E 119°45'2 0.0
2016-Apr-29 04:26N 35°05' E 119°45'241 5.6
2016-Apr-27 09:33N 31°23' E 121°35'9 9.3
2016-Apr-27 08:33N 31°29' E 121°26'1010.1
2016-Apr-27 07:33N 31°35' E 121°17'1210.5
2016-Apr-27 06:26N 31°43' E 121°07'1211.8
2016-Apr-27 05:24N 31°50' E 120°54'1112.5
2016-Apr-27 04:31N 31°60' E 120°49'6 0.4
2016-Apr-26 11:20N 31°60' E 120°42'6 6.4
2016-Apr-26 10:19N 31°60' E 120°50'16 8.3
2016-Apr-26 08:26N 31°47' E 121°00'9 9.9
2016-Apr-26 07:33N 31°42' E 121°09'10 9.7
2016-Apr-26 06:33N 31°36' E 121°18'1110.5
2016-Apr-26 05:33N 31°29' E 121°27'1210.3
2016-Apr-26 04:25N 31°22' E 121°38'  
Track history (hours):
 
Tides and Currents Weather Stations Pressure Air Temp Water Temp Dewpoint Dewpoint Depression Visibility Wind Speed Wind Dir Waves Ship Positions

Pretty Hana

Last reported at 2016-May-01 01:17 UTC. Time now 2016-May-04 04:13 UTC.
Position N 35°04' E 120°06'.

Length 65 m; draft 3.5 m.

Type: Fishing. MMSI: 441600000.

Date/timePositionNaut miles runAvg speedWind from/ knotsBaromVisibWave heightAir tempDewpointWater temp
2016-May-01 01:17N 35°04' E 120°06'17 8.9
2016-Apr-30 23:20N 35°04' E 119°45'2 0.0
2016-Apr-29 04:26N 35°05' E 119°45'241 5.6
2016-Apr-27 09:33N 31°23' E 121°35'9 9.3
2016-Apr-27 08:33N 31°29' E 121°26'1010.1
2016-Apr-27 07:33N 31°35' E 121°17'1210.5
2016-Apr-27 06:26N 31°43' E 121°07'1211.8
2016-Apr-27 05:24N 31°50' E 120°54'1112.5
2016-Apr-27 04:31N 31°60' E 120°49'6 0.4
2016-Apr-26 11:20N 31°60' E 120°42'6 6.4
2016-Apr-26 10:19N 31°60' E 120°50'16 8.3
2016-Apr-26 08:26N 31°47' E 121°00'9 9.9
2016-Apr-26 07:33N 31°42' E 121°09'10 9.7
2016-Apr-26 06:33N 31°36' E 121°18'1110.5
2016-Apr-26 05:33N 31°29' E 121°27'1210.3
2016-Apr-26 04:25N 31°22' E 121°38'  

Dump ship's entire track history